sensor_id;sensor_type;location;lat;lon;timestamp;temperature;humidity
59961;DHT22;55902;-37.980;-63.602;2023-07-13T00:00:49;6.30;99.90
59961;DHT22;55902;-37.980;-63.602;2023-07-13T00:03:20;6.20;99.90
59961;DHT22;55902;-37.980;-63.602;2023-07-13T00:05:59;6.10;99.90
59961;DHT22;55902;-37.980;-63.602;2023-07-13T00:08:31;6.00;99.90
59961;DHT22;55902;-37.980;-63.602;2023-07-13T00:11:00;5.90;99.90
59961;DHT22;55902;-37.980;-63.602;2023-07-13T00:13:35;5.90;99.90
59961;DHT22;55902;-37.980;-63.602;2023-07-13T00:16:17;5.80;99.90
59961;DHT22;55902;-37.980;-63.602;2023-07-13T00:18:46;5.80;99.90
59961;DHT22;55902;-37.980;-63.602;2023-07-13T00:23:58;5.70;99.90
59961;DHT22;55902;-37.980;-63.602;2023-07-13T00:26:27;5.60;99.90
59961;DHT22;55902;-37.980;-63.602;2023-07-13T00:29:00;5.50;99.90
59961;DHT22;55902;-37.980;-63.602;2023-07-13T00:31:37;5.50;99.90
59961;DHT22;55902;-37.980;-63.602;2023-07-13T00:34:13;5.40;99.90
59961;DHT22;55902;-37.980;-63.602;2023-07-13T00:36:59;5.40;99.90
59961;DHT22;55902;-37.980;-63.602;2023-07-13T00:39:38;5.30;99.90
59961;DHT22;55902;-37.980;-63.602;2023-07-13T00:42:13;5.30;99.90
59961;DHT22;55902;-37.980;-63.602;2023-07-13T00:44:41;5.20;99.90
59961;DHT22;55902;-37.980;-63.602;2023-07-13T00:47:15;5.20;99.90
59961;DHT22;55902;-37.980;-63.602;2023-07-13T00:49:51;5.10;99.90
59961;DHT22;55902;-37.980;-63.602;2023-07-13T00:52:19;5.10;99.90
59961;DHT22;55902;-37.980;-63.602;2023-07-13T00:54:47;5.00;99.90
59961;DHT22;55902;-37.980;-63.602;2023-07-13T00:57:26;5.00;99.90
59961;DHT22;55902;-37.980;-63.602;2023-07-13T00:59:57;4.90;99.90
59961;DHT22;55902;-37.980;-63.602;2023-07-13T01:02:29;4.90;99.90
59961;DHT22;55902;-37.980;-63.602;2023-07-13T01:04:57;4.80;99.90
59961;DHT22;55902;-37.980;-63.602;2023-07-13T01:07:26;4.80;99.90
59961;DHT22;55902;-37.980;-63.602;2023-07-13T01:09:58;4.80;99.90
59961;DHT22;55902;-37.980;-63.602;2023-07-13T01:12:28;4.70;99.90
59961;DHT22;55902;-37.980;-63.602;2023-07-13T01:15:01;4.70;99.90
59961;DHT22;55902;-37.980;-63.602;2023-07-13T01:17:36;4.70;99.90
59961;DHT22;55902;-37.980;-63.602;2023-07-13T01:20:07;4.60;99.90
59961;DHT22;55902;-37.980;-63.602;2023-07-13T01:22:39;4.60;99.90
59961;DHT22;55902;-37.980;-63.602;2023-07-13T01:25:07;4.50;99.90
59961;DHT22;55902;-37.980;-63.602;2023-07-13T01:27:41;4.50;99.90
59961;DHT22;55902;-37.980;-63.602;2023-07-13T01:30:09;4.50;99.90
59961;DHT22;55902;-37.980;-63.602;2023-07-13T01:32:54;4.40;99.90
59961;DHT22;55902;-37.980;-63.602;2023-07-13T01:35:21;4.40;99.90
59961;DHT22;55902;-37.980;-63.602;2023-07-13T01:37:58;4.40;99.90
59961;DHT22;55902;-37.980;-63.602;2023-07-13T01:40:37;4.30;99.90
59961;DHT22;55902;-37.980;-63.602;2023-07-13T01:45:50;4.30;99.90
59961;DHT22;55902;-37.980;-63.602;2023-07-13T01:48:21;4.30;99.90
59961;DHT22;55902;-37.980;-63.602;2023-07-13T01:51:03;4.30;99.90
59961;DHT22;55902;-37.980;-63.602;2023-07-13T01:53:30;4.20;99.90
59961;DHT22;55902;-37.980;-63.602;2023-07-13T01:56:01;4.20;99.90
59961;DHT22;55902;-37.980;-63.602;2023-07-13T01:58:28;4.20;99.90
59961;DHT22;55902;-37.980;-63.602;2023-07-13T02:01:01;4.20;99.90
59961;DHT22;55902;-37.980;-63.602;2023-07-13T02:03:35;4.20;99.90
59961;DHT22;55902;-37.980;-63.602;2023-07-13T02:06:06;4.20;99.90
59961;DHT22;55902;-37.980;-63.602;2023-07-13T02:08:38;4.20;99.90
59961;DHT22;55902;-37.980;-63.602;2023-07-13T02:11:06;4.20;99.90
59961;DHT22;55902;-37.980;-63.602;2023-07-13T02:13:36;4.20;99.90
59961;DHT22;55902;-37.980;-63.602;2023-07-13T02:16:11;4.10;99.90
59961;DHT22;55902;-37.980;-63.602;2023-07-13T02:18:38;4.10;99.90
59961;DHT22;55902;-37.980;-63.602;2023-07-13T02:21:12;4.10;99.90
59961;DHT22;55902;-37.980;-63.602;2023-07-13T02:23:45;4.10;99.90
59961;DHT22;55902;-37.980;-63.602;2023-07-13T02:26:16;4.10;99.90
59961;DHT22;55902;-37.980;-63.602;2023-07-13T02:28:47;4.10;99.90
59961;DHT22;55902;-37.980;-63.602;2023-07-13T02:31:19;4.10;99.90
59961;DHT22;55902;-37.980;-63.602;2023-07-13T02:33:50;4.10;99.90
59961;DHT22;55902;-37.980;-63.602;2023-07-13T02:36:17;4.20;99.90
59961;DHT22;55902;-37.980;-63.602;2023-07-13T02:38:53;4.30;99.90
59961;DHT22;55902;-37.980;-63.602;2023-07-13T02:41:21;4.40;99.90
59961;DHT22;55902;-37.980;-63.602;2023-07-13T02:53:56;4.70;99.90
59961;DHT22;55902;-37.980;-63.602;2023-07-13T02:56:34;4.70;99.90
59961;DHT22;55902;-37.980;-63.602;2023-07-13T02:59:02;4.80;99.90
59961;DHT22;55902;-37.980;-63.602;2023-07-13T03:01:29;4.90;99.90
59961;DHT22;55902;-37.980;-63.602;2023-07-13T03:03:59;4.90;99.90
59961;DHT22;55902;-37.980;-63.602;2023-07-13T03:06:38;5.00;99.90
59961;DHT22;55902;-37.980;-63.602;2023-07-13T03:09:07;5.00;99.90
59961;DHT22;55902;-37.980;-63.602;2023-07-13T03:11:43;5.00;99.90
59961;DHT22;55902;-37.980;-63.602;2023-07-13T03:14:14;5.10;99.90
59961;DHT22;55902;-37.980;-63.602;2023-07-13T03:16:42;5.10;99.90
59961;DHT22;55902;-37.980;-63.602;2023-07-13T03:19:13;5.10;99.90
59961;DHT22;55902;-37.980;-63.602;2023-07-13T03:21:42;5.20;99.90
59961;DHT22;55902;-37.980;-63.602;2023-07-13T03:24:10;5.20;99.90
59961;DHT22;55902;-37.980;-63.602;2023-07-13T03:26:42;5.30;99.90
59961;DHT22;55902;-37.980;-63.602;2023-07-13T03:29:16;5.30;99.90
59961;DHT22;55902;-37.980;-63.602;2023-07-13T03:31:44;5.30;99.90
59961;DHT22;55902;-37.980;-63.602;2023-07-13T03:34:18;5.30;99.90
59961;DHT22;55902;-37.980;-63.602;2023-07-13T03:36:45;5.30;99.90
59961;DHT22;55902;-37.980;-63.602;2023-07-13T03:39:14;5.30;99.90
59961;DHT22;55902;-37.980;-63.602;2023-07-13T03:41:48;5.30;99.90
59961;DHT22;55902;-37.980;-63.602;2023-07-13T03:44:25;5.30;99.90
59961;DHT22;55902;-37.980;-63.602;2023-07-13T03:47:04;5.40;99.90
59961;DHT22;55902;-37.980;-63.602;2023-07-13T03:49:33;5.40;99.90
59961;DHT22;55902;-37.980;-63.602;2023-07-13T03:52:01;5.50;99.90
59961;DHT22;55902;-37.980;-63.602;2023-07-13T03:54:29;5.50;99.90
59961;DHT22;55902;-37.980;-63.602;2023-07-13T03:56:57;5.50;99.90
59961;DHT22;55902;-37.980;-63.602;2023-07-13T03:59:24;5.50;99.90
59961;DHT22;55902;-37.980;-63.602;2023-07-13T04:01:51;5.60;99.90
59961;DHT22;55902;-37.980;-63.602;2023-07-13T04:04:18;5.50;99.90
59961;DHT22;55902;-37.980;-63.602;2023-07-13T04:06:46;5.50;99.90
59961;DHT22;55902;-37.980;-63.602;2023-07-13T04:09:14;5.40;99.90
59961;DHT22;55902;-37.980;-63.602;2023-07-13T04:11:41;5.40;99.90
59961;DHT22;55902;-37.980;-63.602;2023-07-13T04:14:09;5.30;99.90
59961;DHT22;55902;-37.980;-63.602;2023-07-13T04:16:37;5.20;99.90
59961;DHT22;55902;-37.980;-63.602;2023-07-13T04:19:04;5.20;99.90
59961;DHT22;55902;-37.980;-63.602;2023-07-13T04:21:31;5.10;99.90
59961;DHT22;55902;-37.980;-63.602;2023-07-13T04:23:58;5.00;99.90
59961;DHT22;55902;-37.980;-63.602;2023-07-13T04:26:26;4.90;99.90
59961;DHT22;55902;-37.980;-63.602;2023-07-13T04:28:53;4.80;99.90
59961;DHT22;55902;-37.980;-63.602;2023-07-13T04:31:20;4.70;99.90
59961;DHT22;55902;-37.980;-63.602;2023-07-13T04:33:48;4.60;99.90
59961;DHT22;55902;-37.980;-63.602;2023-07-13T04:36:16;4.60;99.90
59961;DHT22;55902;-37.980;-63.602;2023-07-13T04:38:43;4.50;99.90
59961;DHT22;55902;-37.980;-63.602;2023-07-13T04:41:13;4.40;99.90
59961;DHT22;55902;-37.980;-63.602;2023-07-13T04:43:41;4.30;99.90
59961;DHT22;55902;-37.980;-63.602;2023-07-13T04:46:13;4.20;99.90
59961;DHT22;55902;-37.980;-63.602;2023-07-13T04:48:40;4.20;99.90
59961;DHT22;55902;-37.980;-63.602;2023-07-13T04:51:07;4.20;99.90
59961;DHT22;55902;-37.980;-63.602;2023-07-13T04:53:34;4.10;99.90
59961;DHT22;55902;-37.980;-63.602;2023-07-13T04:56:02;4.10;99.90
59961;DHT22;55902;-37.980;-63.602;2023-07-13T04:58:30;4.00;99.90
59961;DHT22;55902;-37.980;-63.602;2023-07-13T05:01:04;4.00;99.90
59961;DHT22;55902;-37.980;-63.602;2023-07-13T05:03:31;3.90;99.90
59961;DHT22;55902;-37.980;-63.602;2023-07-13T05:06:01;3.90;99.90
59961;DHT22;55902;-37.980;-63.602;2023-07-13T05:08:28;3.90;99.90
59961;DHT22;55902;-37.980;-63.602;2023-07-13T05:10:55;3.80;99.90
59961;DHT22;55902;-37.980;-63.602;2023-07-13T05:13:22;3.70;99.90
59961;DHT22;55902;-37.980;-63.602;2023-07-13T05:16:00;3.70;99.90
59961;DHT22;55902;-37.980;-63.602;2023-07-13T05:18:28;3.60;99.90
59961;DHT22;55902;-37.980;-63.602;2023-07-13T05:21:02;3.60;99.90
59961;DHT22;55902;-37.980;-63.602;2023-07-13T05:23:30;3.60;99.90
59961;DHT22;55902;-37.980;-63.602;2023-07-13T05:26:01;3.50;99.90
59961;DHT22;55902;-37.980;-63.602;2023-07-13T05:28:30;3.50;99.90
59961;DHT22;55902;-37.980;-63.602;2023-07-13T05:30:58;3.50;99.90
59961;DHT22;55902;-37.980;-63.602;2023-07-13T05:33:26;3.50;99.90
59961;DHT22;55902;-37.980;-63.602;2023-07-13T05:35:53;3.40;99.90
59961;DHT22;55902;-37.980;-63.602;2023-07-13T05:38:21;3.50;99.90
59961;DHT22;55902;-37.980;-63.602;2023-07-13T05:40:48;3.40;99.90
59961;DHT22;55902;-37.980;-63.602;2023-07-13T05:43:15;3.50;99.90
59961;DHT22;55902;-37.980;-63.602;2023-07-13T05:45:42;3.50;99.90
59961;DHT22;55902;-37.980;-63.602;2023-07-13T05:48:09;3.40;99.90
59961;DHT22;55902;-37.980;-63.602;2023-07-13T05:50:36;3.50;99.90
59961;DHT22;55902;-37.980;-63.602;2023-07-13T05:53:04;3.50;99.90
59961;DHT22;55902;-37.980;-63.602;2023-07-13T05:55:31;3.50;99.90
59961;DHT22;55902;-37.980;-63.602;2023-07-13T05:57:59;3.50;99.90
59961;DHT22;55902;-37.980;-63.602;2023-07-13T06:00:26;3.50;99.90
59961;DHT22;55902;-37.980;-63.602;2023-07-13T06:02:53;3.50;99.90
59961;DHT22;55902;-37.980;-63.602;2023-07-13T06:05:20;3.40;99.90
59961;DHT22;55902;-37.980;-63.602;2023-07-13T06:07:47;3.40;99.90
59961;DHT22;55902;-37.980;-63.602;2023-07-13T06:10:14;3.50;99.90
59961;DHT22;55902;-37.980;-63.602;2023-07-13T06:12:41;3.40;99.90
59961;DHT22;55902;-37.980;-63.602;2023-07-13T06:15:09;3.50;99.90
59961;DHT22;55902;-37.980;-63.602;2023-07-13T06:20:58;3.40;99.90
59961;DHT22;55902;-37.980;-63.602;2023-07-13T06:23:26;3.40;99.90
59961;DHT22;55902;-37.980;-63.602;2023-07-13T06:25:53;3.50;99.90
59961;DHT22;55902;-37.980;-63.602;2023-07-13T06:28:23;3.60;99.90
59961;DHT22;55902;-37.980;-63.602;2023-07-13T06:31:15;3.60;99.90
59961;DHT22;55902;-37.980;-63.602;2023-07-13T06:33:43;3.70;99.90
59961;DHT22;55902;-37.980;-63.602;2023-07-13T06:36:10;3.80;99.90
59961;DHT22;55902;-37.980;-63.602;2023-07-13T06:38:38;3.90;99.90
59961;DHT22;55902;-37.980;-63.602;2023-07-13T06:41:07;4.00;99.90
59961;DHT22;55902;-37.980;-63.602;2023-07-13T06:43:34;4.00;99.90
59961;DHT22;55902;-37.980;-63.602;2023-07-13T06:46:01;4.00;99.90
59961;DHT22;55902;-37.980;-63.602;2023-07-13T06:48:28;4.10;99.90
59961;DHT22;55902;-37.980;-63.602;2023-07-13T06:50:56;4.20;99.90
59961;DHT22;55902;-37.980;-63.602;2023-07-13T06:53:23;4.20;99.90
59961;DHT22;55902;-37.980;-63.602;2023-07-13T06:55:51;4.20;99.90
59961;DHT22;55902;-37.980;-63.602;2023-07-13T06:58:18;4.30;99.90
59961;DHT22;55902;-37.980;-63.602;2023-07-13T07:00:45;4.40;99.90
59961;DHT22;55902;-37.980;-63.602;2023-07-13T07:03:13;4.40;99.90
59961;DHT22;55902;-37.980;-63.602;2023-07-13T07:05:40;4.50;99.90
59961;DHT22;55902;-37.980;-63.602;2023-07-13T07:08:07;4.50;99.90
59961;DHT22;55902;-37.980;-63.602;2023-07-13T07:10:34;4.50;99.90
59961;DHT22;55902;-37.980;-63.602;2023-07-13T07:13:02;4.50;99.90
59961;DHT22;55902;-37.980;-63.602;2023-07-13T07:15:29;4.50;99.90
59961;DHT22;55902;-37.980;-63.602;2023-07-13T07:17:56;4.60;99.90
59961;DHT22;55902;-37.980;-63.602;2023-07-13T07:20:23;4.60;99.90
59961;DHT22;55902;-37.980;-63.602;2023-07-13T07:22:50;4.70;99.90
59961;DHT22;55902;-37.980;-63.602;2023-07-13T07:25:18;4.70;99.90
59961;DHT22;55902;-37.980;-63.602;2023-07-13T07:27:45;4.70;99.90
59961;DHT22;55902;-37.980;-63.602;2023-07-13T07:30:15;4.70;99.90
59961;DHT22;55902;-37.980;-63.602;2023-07-13T07:32:42;4.70;99.90
59961;DHT22;55902;-37.980;-63.602;2023-07-13T07:35:09;4.80;99.90
59961;DHT22;55902;-37.980;-63.602;2023-07-13T07:37:36;4.70;99.90
59961;DHT22;55902;-37.980;-63.602;2023-07-13T07:40:03;4.80;99.90
59961;DHT22;55902;-37.980;-63.602;2023-07-13T07:42:31;4.80;99.90
59961;DHT22;55902;-37.980;-63.602;2023-07-13T07:44:58;4.90;99.90
59961;DHT22;55902;-37.980;-63.602;2023-07-13T07:47:25;4.80;99.90
59961;DHT22;55902;-37.980;-63.602;2023-07-13T07:49:52;4.90;99.90
59961;DHT22;55902;-37.980;-63.602;2023-07-13T07:52:19;4.90;99.90
59961;DHT22;55902;-37.980;-63.602;2023-07-13T07:54:46;4.90;99.90
59961;DHT22;55902;-37.980;-63.602;2023-07-13T07:57:13;4.90;99.90
59961;DHT22;55902;-37.980;-63.602;2023-07-13T07:59:40;5.00;99.90
59961;DHT22;55902;-37.980;-63.602;2023-07-13T08:02:09;4.90;99.90
59961;DHT22;55902;-37.980;-63.602;2023-07-13T08:04:37;5.00;99.90
59961;DHT22;55902;-37.980;-63.602;2023-07-13T08:07:04;5.00;99.90
59961;DHT22;55902;-37.980;-63.602;2023-07-13T08:09:31;5.00;99.90
59961;DHT22;55902;-37.980;-63.602;2023-07-13T08:11:58;5.10;99.90
59961;DHT22;55902;-37.980;-63.602;2023-07-13T08:14:25;5.00;99.90
59961;DHT22;55902;-37.980;-63.602;2023-07-13T08:16:52;5.10;99.90
59961;DHT22;55902;-37.980;-63.602;2023-07-13T08:19:20;5.10;99.90
59961;DHT22;55902;-37.980;-63.602;2023-07-13T08:21:47;5.10;99.90
59961;DHT22;55902;-37.980;-63.602;2023-07-13T08:24:15;5.10;99.90
59961;DHT22;55902;-37.980;-63.602;2023-07-13T08:26:45;5.10;99.90
59961;DHT22;55902;-37.980;-63.602;2023-07-13T08:29:12;5.10;99.90
59961;DHT22;55902;-37.980;-63.602;2023-07-13T08:35:01;5.10;99.90
59961;DHT22;55902;-37.980;-63.602;2023-07-13T08:37:28;5.10;99.90
59961;DHT22;55902;-37.980;-63.602;2023-07-13T08:39:55;5.10;99.90
59961;DHT22;55902;-37.980;-63.602;2023-07-13T08:47:23;5.10;99.90
59961;DHT22;55902;-37.980;-63.602;2023-07-13T08:49:51;5.10;99.90
59961;DHT22;55902;-37.980;-63.602;2023-07-13T08:52:45;5.10;99.90
59961;DHT22;55902;-37.980;-63.602;2023-07-13T08:55:21;5.20;99.90
59961;DHT22;55902;-37.980;-63.602;2023-07-13T08:58:03;5.10;99.90
59961;DHT22;55902;-37.980;-63.602;2023-07-13T09:03:30;5.00;99.90
59961;DHT22;55902;-37.980;-63.602;2023-07-13T09:05:59;4.90;99.90
59961;DHT22;55902;-37.980;-63.602;2023-07-13T09:16:41;4.80;99.90
59961;DHT22;55902;-37.980;-63.602;2023-07-13T09:19:26;4.80;99.90
59961;DHT22;55902;-37.980;-63.602;2023-07-13T09:21:55;4.90;99.90
59961;DHT22;55902;-37.980;-63.602;2023-07-13T09:27:43;4.90;99.90
59961;DHT22;55902;-37.980;-63.602;2023-07-13T09:32:45;5.00;99.90
59961;DHT22;55902;-37.980;-63.602;2023-07-13T09:35:19;5.00;99.90
59961;DHT22;55902;-37.980;-63.602;2023-07-13T09:37:46;5.00;99.90
59961;DHT22;55902;-37.980;-63.602;2023-07-13T09:40:53;5.00;99.90
59961;DHT22;55902;-37.980;-63.602;2023-07-13T09:43:25;5.00;99.90
59961;DHT22;55902;-37.980;-63.602;2023-07-13T09:45:55;5.00;99.90
59961;DHT22;55902;-37.980;-63.602;2023-07-13T09:48:22;5.10;99.90
59961;DHT22;55902;-37.980;-63.602;2023-07-13T09:50:55;5.10;99.90
59961;DHT22;55902;-37.980;-63.602;2023-07-13T09:53:23;5.10;99.90
59961;DHT22;55902;-37.980;-63.602;2023-07-13T09:55:56;5.10;99.90
59961;DHT22;55902;-37.980;-63.602;2023-07-13T09:58:25;5.10;99.90
59961;DHT22;55902;-37.980;-63.602;2023-07-13T10:01:00;5.10;99.90
59961;DHT22;55902;-37.980;-63.602;2023-07-13T10:03:34;5.20;99.90
59961;DHT22;55902;-37.980;-63.602;2023-07-13T10:06:16;5.20;99.90
59961;DHT22;55902;-37.980;-63.602;2023-07-13T10:08:46;5.20;99.90
59961;DHT22;55902;-37.980;-63.602;2023-07-13T10:13:57;5.10;99.90
59961;DHT22;55902;-37.980;-63.602;2023-07-13T10:16:33;5.10;99.90
59961;DHT22;55902;-37.980;-63.602;2023-07-13T10:19:23;5.10;99.90
59961;DHT22;55902;-37.980;-63.602;2023-07-13T10:22:00;5.10;99.90
59961;DHT22;55902;-37.980;-63.602;2023-07-13T10:24:37;5.10;99.90
59961;DHT22;55902;-37.980;-63.602;2023-07-13T10:27:27;5.10;99.90
59961;DHT22;55902;-37.980;-63.602;2023-07-13T10:30:13;5.10;99.90
59961;DHT22;55902;-37.980;-63.602;2023-07-13T10:32:43;5.10;99.90
59961;DHT22;55902;-37.980;-63.602;2023-07-13T10:35:15;5.10;99.90
59961;DHT22;55902;-37.980;-63.602;2023-07-13T10:38:07;5.00;99.90
59961;DHT22;55902;-37.980;-63.602;2023-07-13T10:40:45;5.10;99.90
59961;DHT22;55902;-37.980;-63.602;2023-07-13T10:43:34;5.10;99.90
59961;DHT22;55902;-37.980;-63.602;2023-07-13T10:46:05;5.00;99.90
59961;DHT22;55902;-37.980;-63.602;2023-07-13T10:48:35;5.10;99.90
59961;DHT22;55902;-37.980;-63.602;2023-07-13T10:51:05;5.10;99.90
59961;DHT22;55902;-37.980;-63.602;2023-07-13T10:53:35;5.10;99.90
59961;DHT22;55902;-37.980;-63.602;2023-07-13T10:56:04;5.10;99.90
59961;DHT22;55902;-37.980;-63.602;2023-07-13T10:58:42;5.10;99.90
59961;DHT22;55902;-37.980;-63.602;2023-07-13T11:01:14;5.10;99.90
59961;DHT22;55902;-37.980;-63.602;2023-07-13T11:06:38;5.10;99.90
59961;DHT22;55902;-37.980;-63.602;2023-07-13T11:12:02;5.00;99.90
59961;DHT22;55902;-37.980;-63.602;2023-07-13T11:14:35;5.10;99.90
59961;DHT22;55902;-37.980;-63.602;2023-07-13T11:23:06;5.10;99.90
59961;DHT22;55902;-37.980;-63.602;2023-07-13T11:25:35;5.10;99.90
59961;DHT22;55902;-37.980;-63.602;2023-07-13T11:30:49;5.10;99.90
59961;DHT22;55902;-37.980;-63.602;2023-07-13T11:33:30;5.10;99.90
59961;DHT22;55902;-37.980;-63.602;2023-07-13T11:36:12;5.10;99.90
59961;DHT22;55902;-37.980;-63.602;2023-07-13T11:38:42;5.10;99.90
59961;DHT22;55902;-37.980;-63.602;2023-07-13T11:41:31;5.10;99.90
59961;DHT22;55902;-37.980;-63.602;2023-07-13T11:44:19;5.10;99.90
59961;DHT22;55902;-37.980;-63.602;2023-07-13T11:46:53;5.10;99.90
59961;DHT22;55902;-37.980;-63.602;2023-07-13T11:49:25;5.00;99.90
59961;DHT22;55902;-37.980;-63.602;2023-07-13T11:51:53;5.10;99.90
59961;DHT22;55902;-37.980;-63.602;2023-07-13T11:54:31;5.10;99.90
59961;DHT22;55902;-37.980;-63.602;2023-07-13T11:57:10;5.10;99.90
59961;DHT22;55902;-37.980;-63.602;2023-07-13T11:59:44;5.10;99.90
59961;DHT22;55902;-37.980;-63.602;2023-07-13T12:02:31;5.10;99.90
59961;DHT22;55902;-37.980;-63.602;2023-07-13T12:05:00;5.10;99.90
59961;DHT22;55902;-37.980;-63.602;2023-07-13T12:07:33;5.10;99.90
59961;DHT22;55902;-37.980;-63.602;2023-07-13T12:10:27;5.20;99.90
59961;DHT22;55902;-37.980;-63.602;2023-07-13T12:13:03;5.20;99.90
59961;DHT22;55902;-37.980;-63.602;2023-07-13T12:15:44;5.30;99.90
59961;DHT22;55902;-37.980;-63.602;2023-07-13T12:18:23;5.20;99.90
59961;DHT22;55902;-37.980;-63.602;2023-07-13T12:20:58;5.30;99.90
59961;DHT22;55902;-37.980;-63.602;2023-07-13T12:23:28;5.30;99.90
59961;DHT22;55902;-37.980;-63.602;2023-07-13T12:25:58;5.30;99.90
59961;DHT22;55902;-37.980;-63.602;2023-07-13T12:31:23;5.30;99.90
59961;DHT22;55902;-37.980;-63.602;2023-07-13T12:34:10;5.30;99.90
59961;DHT22;55902;-37.980;-63.602;2023-07-13T12:36:54;5.40;99.90
59961;DHT22;55902;-37.980;-63.602;2023-07-13T12:39:36;5.50;99.90
59961;DHT22;55902;-37.980;-63.602;2023-07-13T12:42:27;5.50;99.90
59961;DHT22;55902;-37.980;-63.602;2023-07-13T12:45:16;5.50;99.90
59961;DHT22;55902;-37.980;-63.602;2023-07-13T12:47:48;5.60;99.90
59961;DHT22;55902;-37.980;-63.602;2023-07-13T12:50:20;5.60;99.90
59961;DHT22;55902;-37.980;-63.602;2023-07-13T12:52:55;5.60;99.90
59961;DHT22;55902;-37.980;-63.602;2023-07-13T12:55:24;5.70;99.90
59961;DHT22;55902;-37.980;-63.602;2023-07-13T12:57:54;5.80;99.90
59961;DHT22;55902;-37.980;-63.602;2023-07-13T13:00:36;5.80;99.90
59961;DHT22;55902;-37.980;-63.602;2023-07-13T13:03:29;5.90;99.90
59961;DHT22;55902;-37.980;-63.602;2023-07-13T13:08:34;6.10;99.90
59961;DHT22;55902;-37.980;-63.602;2023-07-13T13:11:02;6.30;99.90
59961;DHT22;55902;-37.980;-63.602;2023-07-13T13:13:30;6.40;99.90
59961;DHT22;55902;-37.980;-63.602;2023-07-13T13:16:23;6.70;99.90
59961;DHT22;55902;-37.980;-63.602;2023-07-13T13:18:53;6.80;99.90
59961;DHT22;55902;-37.980;-63.602;2023-07-13T13:21:22;7.10;99.90
59961;DHT22;55902;-37.980;-63.602;2023-07-13T13:23:49;7.50;99.90
59961;DHT22;55902;-37.980;-63.602;2023-07-13T13:26:19;7.90;99.90
59961;DHT22;55902;-37.980;-63.602;2023-07-13T13:28:47;8.30;99.90
59961;DHT22;55902;-37.980;-63.602;2023-07-13T13:31:17;8.30;99.90
59961;DHT22;55902;-37.980;-63.602;2023-07-13T13:33:46;8.40;99.90
59961;DHT22;55902;-37.980;-63.602;2023-07-13T13:36:23;8.80;99.90
59961;DHT22;55902;-37.980;-63.602;2023-07-13T13:38:51;9.30;99.90
59961;DHT22;55902;-37.980;-63.602;2023-07-13T13:41:18;9.70;99.90
59961;DHT22;55902;-37.980;-63.602;2023-07-13T13:43:46;10.20;99.90
59961;DHT22;55902;-37.980;-63.602;2023-07-13T13:46:19;10.40;99.90
59961;DHT22;55902;-37.980;-63.602;2023-07-13T13:48:49;10.70;99.90
59961;DHT22;55902;-37.980;-63.602;2023-07-13T13:51:22;11.10;99.90
59961;DHT22;55902;-37.980;-63.602;2023-07-13T13:53:50;11.20;99.90
59961;DHT22;55902;-37.980;-63.602;2023-07-13T13:56:20;11.40;99.90
59961;DHT22;55902;-37.980;-63.602;2023-07-13T13:58:48;11.50;99.90
59961;DHT22;55902;-37.980;-63.602;2023-07-13T14:01:24;11.60;99.90
59961;DHT22;55902;-37.980;-63.602;2023-07-13T14:03:52;11.70;99.90
59961;DHT22;55902;-37.980;-63.602;2023-07-13T14:06:19;12.00;99.90
59961;DHT22;55902;-37.980;-63.602;2023-07-13T14:08:46;12.00;99.90
59961;DHT22;55902;-37.980;-63.602;2023-07-13T14:11:18;12.00;99.90
59961;DHT22;55902;-37.980;-63.602;2023-07-13T14:13:55;11.90;99.90
59961;DHT22;55902;-37.980;-63.602;2023-07-13T14:16:27;11.70;99.90
59961;DHT22;55902;-37.980;-63.602;2023-07-13T14:18:56;11.50;99.90
59961;DHT22;55902;-37.980;-63.602;2023-07-13T14:21:28;11.30;99.90
59961;DHT22;55902;-37.980;-63.602;2023-07-13T14:23:55;11.30;99.90
59961;DHT22;55902;-37.980;-63.602;2023-07-13T14:26:29;11.30;99.90
59961;DHT22;55902;-37.980;-63.602;2023-07-13T14:28:59;11.20;99.90
59961;DHT22;55902;-37.980;-63.602;2023-07-13T14:31:27;11.00;99.90
59961;DHT22;55902;-37.980;-63.602;2023-07-13T14:33:58;11.10;99.90
59961;DHT22;55902;-37.980;-63.602;2023-07-13T14:36:30;11.40;99.90
59961;DHT22;55902;-37.980;-63.602;2023-07-13T14:39:00;11.50;99.90
59961;DHT22;55902;-37.980;-63.602;2023-07-13T14:41:27;11.60;99.90
59961;DHT22;55902;-37.980;-63.602;2023-07-13T14:43:54;11.90;99.90
59961;DHT22;55902;-37.980;-63.602;2023-07-13T14:46:30;11.80;99.90
59961;DHT22;55902;-37.980;-63.602;2023-07-13T14:49:14;11.60;99.90
59961;DHT22;55902;-37.980;-63.602;2023-07-13T14:51:42;11.30;99.90
59961;DHT22;55902;-37.980;-63.602;2023-07-13T14:54:09;11.20;99.90
59961;DHT22;55902;-37.980;-63.602;2023-07-13T14:56:38;11.10;99.90
59961;DHT22;55902;-37.980;-63.602;2023-07-13T14:59:09;11.10;99.90
59961;DHT22;55902;-37.980;-63.602;2023-07-13T15:01:37;11.10;99.90
59961;DHT22;55902;-37.980;-63.602;2023-07-13T15:04:05;11.10;99.90
59961;DHT22;55902;-37.980;-63.602;2023-07-13T15:06:55;11.00;99.90
59961;DHT22;55902;-37.980;-63.602;2023-07-13T15:09:27;10.90;99.90
59961;DHT22;55902;-37.980;-63.602;2023-07-13T15:11:57;10.80;99.90
59961;DHT22;55902;-37.980;-63.602;2023-07-13T15:14:25;10.50;99.90
59961;DHT22;55902;-37.980;-63.602;2023-07-13T15:16:56;10.20;99.90
59961;DHT22;55902;-37.980;-63.602;2023-07-13T15:19:24;9.90;99.90
59961;DHT22;55902;-37.980;-63.602;2023-07-13T15:21:54;9.90;99.90
59961;DHT22;55902;-37.980;-63.602;2023-07-13T15:24:24;9.80;99.90
59961;DHT22;55902;-37.980;-63.602;2023-07-13T15:26:51;9.60;99.90
59961;DHT22;55902;-37.980;-63.602;2023-07-13T15:29:18;9.60;99.90
59961;DHT22;55902;-37.980;-63.602;2023-07-13T15:31:45;9.60;99.90
59961;DHT22;55902;-37.980;-63.602;2023-07-13T15:34:15;9.50;99.90
59961;DHT22;55902;-37.980;-63.602;2023-07-13T15:36:43;9.50;99.90
59961;DHT22;55902;-37.980;-63.602;2023-07-13T15:39:15;9.40;99.90
59961;DHT22;55902;-37.980;-63.602;2023-07-13T15:41:44;9.60;99.90
59961;DHT22;55902;-37.980;-63.602;2023-07-13T15:44:40;9.70;99.90
59961;DHT22;55902;-37.980;-63.602;2023-07-13T15:47:12;9.90;99.90
59961;DHT22;55902;-37.980;-63.602;2023-07-13T15:49:40;9.80;99.90
59961;DHT22;55902;-37.980;-63.602;2023-07-13T15:52:23;9.90;99.90
59961;DHT22;55902;-37.980;-63.602;2023-07-13T15:54:50;10.10;99.90
59961;DHT22;55902;-37.980;-63.602;2023-07-13T15:57:18;10.30;99.90
59961;DHT22;55902;-37.980;-63.602;2023-07-13T15:59:45;10.40;99.90
59961;DHT22;55902;-37.980;-63.602;2023-07-13T16:02:17;10.20;99.90
59961;DHT22;55902;-37.980;-63.602;2023-07-13T16:04:45;10.00;99.90
59961;DHT22;55902;-37.980;-63.602;2023-07-13T16:07:15;9.70;99.90
59961;DHT22;55902;-37.980;-63.602;2023-07-13T16:09:45;9.60;99.90
59961;DHT22;55902;-37.980;-63.602;2023-07-13T16:12:14;9.40;99.90
59961;DHT22;55902;-37.980;-63.602;2023-07-13T16:14:42;9.30;99.90
59961;DHT22;55902;-37.980;-63.602;2023-07-13T16:17:12;9.50;99.90
59961;DHT22;55902;-37.980;-63.602;2023-07-13T16:19:41;9.80;99.90
59961;DHT22;55902;-37.980;-63.602;2023-07-13T16:22:17;10.00;99.90
59961;DHT22;55902;-37.980;-63.602;2023-07-13T16:24:45;9.80;99.90
59961;DHT22;55902;-37.980;-63.602;2023-07-13T16:27:13;9.70;99.90
59961;DHT22;55902;-37.980;-63.602;2023-07-13T16:29:40;9.60;99.90
59961;DHT22;55902;-37.980;-63.602;2023-07-13T16:32:12;9.60;99.90